Time;durP1;ratioP1;P1;durP2;ratioP2;P2;SDS_P1;SDS_P2;PMS_P1;PMS_P2;Temp;Humidity;BMP_temperature;BMP_pressure;BME280_temperature;BME280_humidity;BME280_pressure;Samples;Min_cycle;Max_cycle;Signal;HPM_P1;HPM_P2
2022/10/09 00:01:24;;;;;;;5.03;1.27;;;;;;;8.20;100.00;100067.32;1776121;78;21085;-46
2022/10/09 00:03:52;;;;;;;1.87;1.05;;;;;;;8.17;100.00;100070.97;1772620;78;21501;-47
2022/10/09 00:06:25;;;;;;;3.67;1.00;;;;;;;8.18;100.00;100070.52;1782534;78;21093;-46
2022/10/09 00:08:51;;;;;;;1.45;0.93;;;;;;;8.17;100.00;100067.41;1779334;78;22654;-46
2022/10/09 00:11:23;;;;;;;3.67;1.27;;;;;;;8.16;100.00;100058.98;1771238;78;21657;-46
2022/10/09 00:13:51;;;;;;;6.40;0.95;;;;;;;8.13;100.00;100058.61;1750062;79;21412;-47
2022/10/09 00:16:20;;;;;;;2.12;0.95;;;;;;;8.09;100.00;100057.41;1779962;78;21315;-47
2022/10/09 00:18:47;;;;;;;2.83;1.10;;;;;;;8.06;100.00;100064.23;1783666;78;22314;-46
2022/10/09 00:21:19;;;;;;;5.03;1.77;;;;;;;8.01;100.00;100051.42;1780989;78;21866;-47
2022/10/09 00:23:45;;;;;;;2.47;1.00;;;;;;;7.95;100.00;100060.56;1775394;78;21281;-45
2022/10/09 00:26:11;;;;;;;5.45;1.30;;;;;;;7.89;100.00;100046.03;1770542;79;21519;-46
2022/10/09 00:28:38;;;;;;;2.12;1.00;;;;;;;7.83;100.00;100046.20;1776297;78;21032;-46
2022/10/09 00:31:06;;;;;;;6.45;1.82;;;;;;;7.76;100.00;100045.99;1753748;80;21063;-47
2022/10/09 00:33:33;;;;;;;4.42;1.27;;;;;;;7.69;100.00;100038.62;1783680;78;22540;-47
2022/10/09 00:36:17;;;;;;;3.67;0.90;;;;;;;7.67;100.00;100031.55;1780828;78;21191;-47
2022/10/09 00:38:43;;;;;;;2.72;1.20;;;;;;;7.67;100.00;100035.56;1772099;78;21044;-47
2022/10/09 00:41:14;;;;;;;3.98;1.10;;;;;;;7.67;100.00;100036.91;1759005;80;21329;-46
2022/10/09 00:43:53;;;;;;;5.15;1.37;;;;;;;7.64;100.00;100031.20;1779693;78;21072;-46
2022/10/09 00:46:44;;;;;;;6.33;1.60;;;;;;;7.61;100.00;100033.97;1781672;78;21060;-48
2022/10/09 00:49:26;;;;;;;5.45;1.30;;;;;;;7.57;100.00;100029.16;1753437;79;21041;-46
2022/10/09 00:51:54;;;;;;;2.37;1.20;;;;;;;7.53;100.00;100029.31;1763446;79;21091;-47
2022/10/09 00:54:23;;;;;;;5.50;1.23;;;;;;;7.49;100.00;100027.19;1763821;79;21071;-47
2022/10/09 00:56:50;;;;;;;2.30;0.95;;;;;;;7.47;100.00;100027.72;1758101;79;21060;-46
2022/10/09 00:59:16;;;;;;;7.40;1.10;;;;;;;7.41;100.00;100025.20;1762665;79;21790;-48
2022/10/09 01:01:43;;;;;;;7.50;1.02;;;;;;;7.37;100.00;100022.69;1764242;79;21451;-47
2022/10/09 01:04:10;;;;;;;3.20;1.10;;;;;;;7.35;100.00;100021.39;1763790;79;21048;-47
2022/10/09 01:06:47;;;;;;;5.70;1.00;;;;;;;7.33;100.00;100022.35;1762548;79;21316;-49
2022/10/09 01:09:24;;;;;;;4.53;1.00;;;;;;;7.31;100.00;100022.42;1763753;79;21092;-50
2022/10/09 01:11:58;;;;;;;6.10;1.07;;;;;;;7.30;100.00;100020.67;1752468;80;22026;-49
2022/10/09 01:14:36;;;;;;;4.28;1.00;;;;;;;7.30;100.00;100011.30;1757801;78;21514;-49
2022/10/09 01:17:16;;;;;;;2.87;1.10;;;;;;;7.31;100.00;100014.85;1756958;78;21083;-49
2022/10/09 01:20:12;;;;;;;3.75;1.30;;;;;;;7.30;100.00;100025.14;1748312;80;22531;-48
2022/10/09 01:23:17;;;;;;;5.97;1.50;;;;;;;7.26;100.00;100012.76;1776064;78;21583;-48
2022/10/09 01:25:55;;;;;;;4.43;1.20;;;;;;;7.18;100.00;100013.00;1748714;80;21842;-50
2022/10/09 01:28:23;;;;;;;2.40;1.20;;;;;;;7.08;100.00;100016.41;1750960;80;21601;-49
2022/10/09 01:30:51;;;;;;;8.50;1.00;;;;;;;7.01;100.00;100013.96;1780877;78;21064;-49
2022/10/09 01:33:17;;;;;;;1.70;0.80;;;;;;;6.96;100.00;100013.23;1778440;78;21622;-48
2022/10/09 01:35:44;;;;;;;7.23;0.90;;;;;;;6.94;100.00;100020.42;1754164;80;21063;-49
2022/10/09 01:38:10;;;;;;;11.40;1.20;;;;;;;6.92;100.00;100016.91;1780589;78;23482;-50
2022/10/09 01:40:36;;;;;;;5.17;1.47;;;;;;;6.89;100.00;100016.52;1753163;80;21565;-48
2022/10/09 01:43:03;;;;;;;9.07;1.10;;;;;;;6.89;100.00;100012.51;1752108;80;21096;-48
2022/10/09 01:45:39;;;;;;;3.27;0.90;;;;;;;6.88;100.00;100017.48;1754574;79;21550;-49
2022/10/09 01:48:06;;;;;;;8.43;1.10;;;;;;;6.87;100.00;100013.50;1778222;78;21046;-49
2022/10/09 01:50:33;;;;;;;5.57;1.43;;;;;;;6.84;100.00;100010.44;1776759;78;21900;-50
2022/10/09 01:53:06;;;;;;;7.00;1.10;;;;;;;6.82;100.00;100010.48;1746352;79;21079;-50
2022/10/09 01:55:50;;;;;;;3.67;1.10;;;;;;;6.80;100.00;100009.64;1778740;78;21076;-50
2022/10/09 01:58:27;;;;;;;5.37;1.40;;;;;;;6.77;100.00;100013.77;1776646;78;21057;-48
2022/10/09 02:01:05;;;;;;;4.50;0.80;;;;;;;6.74;100.00;100010.28;1776378;78;21089;-48
2022/10/09 02:03:32;;;;;;;5.17;1.03;;;;;;;6.70;100.00;100012.64;1776954;78;21830;-47
2022/10/09 02:06:00;;;;;;;1.73;1.00;;;;;;;6.67;100.00;100014.94;1751065;80;20993;-49
2022/10/09 02:08:26;;;;;;;2.37;0.90;;;;;;;6.64;100.00;100011.45;1780383;78;20969;-48
2022/10/09 02:10:55;;;;;;;5.07;0.90;;;;;;;6.61;100.00;100010.23;1780919;78;21036;-47
2022/10/09 02:13:22;;;;;;;1.57;0.97;;;;;;;6.60;100.00;100014.70;1777914;78;21440;-50
2022/10/09 02:16:21;;;;;;;5.83;1.30;;;;;;;6.58;100.00;100008.50;1745023;80;22386;-47
2022/10/09 02:19:20;;;;;;;3.97;1.20;;;;;;;6.58;100.00;100004.50;1741514;80;21054;-48
2022/10/09 02:21:54;;;;;;;7.00;1.03;;;;;;;6.59;100.00;100008.05;1766569;78;21076;-50
2022/10/09 02:24:22;;;;;;;2.40;0.87;;;;;;;6.58;100.00;100008.97;1742552;80;21506;-47
2022/10/09 02:26:49;;;;;;;8.00;1.57;;;;;;;6.56;100.00;100002.31;1783443;78;21029;-48
2022/10/09 02:29:15;;;;;;;7.13;1.00;;;;;;;6.54;100.00;100000.17;1780889;78;21782;-50
2022/10/09 02:31:42;;;;;;;3.53;1.30;;;;;;;6.50;100.00;99998.94;1742426;78;21340;-48
2022/10/09 02:34:13;;;;;;;10.33;1.10;;;;;;;6.45;100.00;100002.64;1777177;78;20977;-47
2022/10/09 02:36:39;;;;;;;3.50;0.90;;;;;;;6.41;100.00;100005.42;1748153;80;20989;-48
2022/10/09 02:39:06;;;;;;;3.67;0.93;;;;;;;6.36;100.00;100000.21;1744715;80;21158;-50
2022/10/09 02:41:32;;;;;;;1.90;1.30;;;;;;;6.32;100.00;100001.66;1738887;80;21909;-50
2022/10/09 02:43:59;;;;;;;6.33;1.10;;;;;;;6.31;100.00;100002.12;1753063;79;20967;-48
2022/10/09 02:46:26;;;;;;;2.83;0.93;;;;;;;6.31;100.00;100004.79;1750960;80;21048;-48
2022/10/09 02:48:53;;;;;;;5.40;1.23;;;;;;;6.31;100.00;99994.55;1777434;78;21461;-47
2022/10/09 02:51:19;;;;;;;1.83;1.03;;;;;;;6.32;100.00;99996.31;1779465;78;21040;-50
2022/10/09 02:53:45;;;;;;;1.73;1.07;;;;;;;6.31;100.00;99989.20;1752067;79;21752;-48
2022/10/09 02:56:12;;;;;;;2.90;1.10;;;;;;;6.31;100.00;99993.22;1752152;79;21283;-47
2022/10/09 02:58:38;;;;;;;4.17;1.50;;;;;;;6.32;100.00;99989.62;1751178;79;21046;-49
2022/10/09 03:01:05;;;;;;;5.40;1.37;;;;;;;6.32;100.00;99989.17;1751958;79;21512;-48
2022/10/09 03:03:32;;;;;;;4.17;2.00;;;;;;;6.34;100.00;99991.81;1751087;79;21045;-50
2022/10/09 03:06:05;;;;;;;5.47;1.13;;;;;;;6.34;100.00;99994.48;1743215;79;21831;-48
2022/10/09 03:08:31;;;;;;;4.10;1.97;;;;;;;6.31;100.00;99987.87;1750045;80;21077;-48
2022/10/09 03:10:57;;;;;;;3.97;1.30;;;;;;;6.25;100.00;99980.02;1750251;79;21070;-47
2022/10/09 03:13:24;;;;;;;6.43;1.00;;;;;;;6.19;100.00;99982.41;1751310;79;21523;-50
2022/10/09 03:15:50;;;;;;;6.47;1.20;;;;;;;6.16;100.00;99976.27;1751911;79;21088;-48
2022/10/09 03:18:17;;;;;;;4.70;1.20;;;;;;;6.14;100.00;99971.41;1749277;79;21830;-48
2022/10/09 03:20:44;;;;;;;10.60;1.27;;;;;;;6.11;100.00;99975.06;1750404;79;21057;-47
2022/10/09 03:23:11;;;;;;;4.43;1.33;;;;;;;6.10;100.00;99971.09;1742871;79;21382;-47
2022/10/09 03:25:37;;;;;;;2.60;1.10;;;;;;;6.10;100.00;99971.97;1748686;80;21528;-47
2022/10/09 03:28:03;;;;;;;2.73;1.17;;;;;;;6.10;100.00;99977.77;1776242;78;21029;-45
2022/10/09 03:30:30;;;;;;;5.57;1.20;;;;;;;6.08;100.00;99967.99;1748862;79;21991;-46
2022/10/09 03:32:56;;;;;;;6.07;1.17;;;;;;;6.08;100.00;99971.13;1753671;80;23601;-45
2022/10/09 03:35:23;;;;;;;3.27;1.17;;;;;;;6.07;100.00;99971.58;1751559;79;21131;-44
2022/10/09 03:37:50;;;;;;;6.00;1.30;;;;;;;6.06;100.00;99971.16;1747052;79;21143;-47
2022/10/09 03:40:17;;;;;;;2.57;1.20;;;;;;;6.02;100.00;99970.84;1750041;80;21164;-47
2022/10/09 03:42:44;;;;;;;1.23;0.90;;;;;;;5.97;100.00;99963.84;1778170;78;22564;-49
2022/10/09 03:45:10;;;;;;;7.57;1.47;;;;;;;5.92;100.00;99965.31;1750987;79;21019;-48
2022/10/09 03:47:37;;;;;;;3.33;1.13;;;;;;;5.88;100.00;99966.29;1750493;80;21061;-49
2022/10/09 03:50:04;;;;;;;2.70;1.30;;;;;;;5.85;100.00;99965.02;1760437;79;21670;-49
2022/10/09 03:52:31;;;;;;;1.10;0.80;;;;;;;5.84;100.00;99960.59;1758190;79;21064;-48
2022/10/09 03:54:57;;;;;;;2.60;1.10;;;;;;;5.83;100.00;99954.83;1754651;79;21810;-47
2022/10/09 03:57:24;;;;;;;2.67;0.90;;;;;;;5.84;100.00;99962.37;1742530;80;21045;-48
2022/10/09 03:59:50;;;;;;;3.60;1.00;;;;;;;5.85;100.00;99961.47;1751541;79;21108;-49
2022/10/09 04:02:17;;;;;;;6.23;1.10;;;;;;;5.87;100.00;99959.16;1766541;79;21037;-48
2022/10/09 04:04:43;;;;;;;1.97;1.13;;;;;;;5.88;100.00;99968.96;1755875;79;21748;-46
2022/10/09 04:07:09;;;;;;;3.73;1.20;;;;;;;5.89;100.00;99964.04;1753889;79;21931;-45
2022/10/09 04:09:36;;;;;;;6.50;1.40;;;;;;;5.89;100.00;99962.70;1754788;79;21041;-45
2022/10/09 04:12:04;;;;;;;5.47;1.20;;;;;;;5.89;100.00;99963.16;1764924;79;21526;-47
2022/10/09 04:14:30;;;;;;;4.90;1.60;;;;;;;5.89;100.00;99968.50;1753737;78;21336;-45
2022/10/09 04:16:57;;;;;;;2.90;1.47;;;;;;;5.88;100.00;99968.96;1742098;80;21061;-46
2022/10/09 04:19:25;;;;;;;5.33;1.30;;;;;;;5.86;100.00;99970.78;1743390;80;21053;-48
2022/10/09 04:21:51;;;;;;;6.83;1.63;;;;;;;5.83;100.00;99967.30;1739432;80;21080;-45
2022/10/09 04:24:18;;;;;;;3.57;1.20;;;;;;;5.80;100.00;99961.57;1713047;81;21604;-45
2022/10/09 04:26:44;;;;;;;3.37;0.93;;;;;;;5.80;100.00;99961.57;1715142;81;21060;-45
2022/10/09 04:29:11;;;;;;;4.07;1.37;;;;;;;5.78;100.00;99962.55;1747191;80;21045;-46
2022/10/09 04:31:38;;;;;;;5.40;1.10;;;;;;;5.76;100.00;99959.03;1715236;81;21830;-45
2022/10/09 04:34:05;;;;;;;2.93;1.30;;;;;;;5.75;100.00;99957.27;1697037;82;21556;-45
2022/10/09 04:36:31;;;;;;;2.33;1.00;;;;;;;5.77;100.00;99964.34;1742632;80;21528;-48
2022/10/09 04:38:59;;;;;;;2.07;1.20;;;;;;;5.79;100.00;99960.27;1717956;81;21561;-46
2022/10/09 04:41:26;;;;;;;1.90;1.10;;;;;;;5.81;100.00;99963.33;1710403;81;21004;-45
2022/10/09 04:43:56;;;;;;;2.63;1.73;;;;;;;5.84;100.00;99957.04;1710964;81;21897;-47
2022/10/09 04:46:23;;;;;;;2.07;1.10;;;;;;;5.88;100.00;99958.27;1746073;80;21622;-45
2022/10/09 04:48:49;;;;;;;4.57;1.50;;;;;;;5.92;100.00;99958.62;1713978;81;21062;-45
2022/10/09 04:51:16;;;;;;;6.07;1.60;;;;;;;5.95;100.00;99961.69;1740455;80;21151;-45
2022/10/09 04:53:44;;;;;;;8.80;2.37;;;;;;;5.99;100.00;99966.02;1736791;80;21056;-45
2022/10/09 04:56:13;;;;;;;3.10;1.40;;;;;;;6.03;100.00;99969.92;1715255;81;23207;-47
2022/10/09 04:58:41;;;;;;;2.70;1.10;;;;;;;6.07;100.00;99979.59;1717456;81;21503;-46
2022/10/09 05:01:20;;;;;;;3.67;1.53;;;;;;;6.08;100.00;99977.34;1744823;80;21035;-47
2022/10/09 05:03:47;;;;;;;8.53;1.77;;;;;;;6.08;100.00;99976.02;1740318;80;21554;-48
2022/10/09 05:06:14;;;;;;;4.30;1.70;;;;;;;6.11;100.00;99969.72;1742889;80;21072;-48
2022/10/09 05:08:42;;;;;;;6.63;1.77;;;;;;;6.17;100.00;99971.34;1744204;80;21772;-47
2022/10/09 05:11:11;;;;;;;2.67;1.70;;;;;;;6.27;100.00;99972.84;1749351;80;20958;-48
2022/10/09 05:13:40;;;;;;;4.93;1.43;;;;;;;6.40;100.00;99968.91;1745531;80;22524;-47
2022/10/09 05:16:10;;;;;;;4.73;3.17;;;;;;;6.52;100.00;99961.89;1713943;82;21285;-48
2022/10/09 05:18:43;;;;;;;4.07;1.83;;;;;;;6.68;100.00;99971.68;1720071;81;21068;-48
2022/10/09 05:21:09;;;;;;;3.13;2.10;;;;;;;6.82;100.00;99977.03;1746385;80;23144;-48
2022/10/09 05:23:36;;;;;;;7.77;2.10;;;;;;;6.99;100.00;99965.83;1736836;80;21860;-48
2022/10/09 05:26:06;;;;;;;9.13;3.80;;;;;;;7.15;100.00;99970.24;1731390;80;20993;-46
2022/10/09 05:28:35;;;;;;;9.00;4.00;;;;;;;7.35;100.00;99975.87;1738821;80;21564;-45
2022/10/09 05:31:05;;;;;;;8.33;5.08;;;;;;;7.53;100.00;99975.28;1730403;81;20997;-46
2022/10/09 05:33:31;;;;;;;8.67;4.10;;;;;;;7.71;100.00;99975.61;1734038;80;21358;-48
2022/10/09 05:35:59;;;;;;;8.65;3.92;;;;;;;7.89;100.00;99975.88;1728134;80;20981;-45
2022/10/09 05:38:26;;;;;;;6.05;3.00;;;;;;;8.08;100.00;99984.64;1728440;81;20989;-45
2022/10/09 05:40:58;;;;;;;4.17;1.57;;;;;;;8.23;100.00;99989.47;1730681;80;20970;-48
2022/10/09 05:43:28;;;;;;;6.15;1.82;;;;;;;8.34;100.00;99991.31;1727224;81;20968;-46
2022/10/09 05:45:55;;;;;;;4.45;1.62;;;;;;;8.43;100.00;99990.11;1747803;80;21787;-48
2022/10/09 05:48:22;;;;;;;8.18;1.25;;;;;;;8.51;100.00;99980.86;1747456;80;21020;-49
2022/10/09 05:50:48;;;;;;;4.60;1.30;;;;;;;8.61;100.00;99989.45;1741874;80;22145;-48
2022/10/09 05:53:15;;;;;;;4.53;1.92;;;;;;;8.69;100.00;99988.70;1730380;80;21080;-48
2022/10/09 05:55:41;;;;;;;8.18;1.62;;;;;;;8.79;100.00;99987.44;1733288;81;21080;-47
2022/10/09 05:58:07;;;;;;;7.28;1.85;;;;;;;8.89;100.00;99992.00;1732806;80;21806;-50
2022/10/09 06:00:34;;;;;;;8.65;2.22;;;;;;;8.97;100.00;99996.61;1733043;81;21100;-48
2022/10/09 06:03:00;;;;;;;6.95;2.52;;;;;;;9.03;100.00;99986.51;1727581;80;21191;-50
2022/10/09 06:05:27;;;;;;;7.30;3.25;;;;;;;9.10;100.00;99992.05;1724414;81;21067;-48
2022/10/09 06:07:54;;;;;;;5.75;2.75;;;;;;;9.16;100.00;99986.05;1725086;80;21550;-49
2022/10/09 06:10:21;;;;;;;5.25;2.37;;;;;;;9.21;100.00;99984.92;1726994;80;21931;-49
2022/10/09 06:12:48;;;;;;;5.25;3.05;;;;;;;9.26;100.00;99986.98;1724071;81;21903;-48
2022/10/09 06:15:14;;;;;;;7.00;3.52;;;;;;;9.33;100.00;99984.46;1752392;79;22482;-48
2022/10/09 06:17:40;;;;;;;6.97;2.75;;;;;;;9.39;100.00;99983.33;1764502;79;21098;-50
2022/10/09 06:20:08;;;;;;;5.12;2.50;;;;;;;9.47;100.00;99982.55;1761415;79;21575;-50
2022/10/09 06:22:34;;;;;;;4.33;3.67;;;;;;;9.57;100.00;99987.09;1766775;79;21852;-46
2022/10/09 06:25:01;;;;;;;10.58;4.15;;;;;;;9.68;100.00;99984.86;1761378;79;21621;-45
2022/10/09 06:27:27;;;;;;;8.80;3.85;;;;;;;9.79;100.00;99987.49;1759110;79;20998;-48
2022/10/09 06:29:54;;;;;;;5.87;3.35;;;;;;;9.93;100.00;99990.09;1760506;79;21101;-47
2022/10/09 06:32:21;;;;;;;6.60;3.67;;;;;;;10.06;100.00;99990.84;1762281;79;21136;-47
2022/10/09 06:34:47;;;;;;;9.13;4.70;;;;;;;10.20;100.00;99984.94;1761579;79;21937;-46
2022/10/09 06:37:14;;;;;;;5.12;3.72;;;;;;;10.34;100.00;99985.67;1761858;79;21081;-47
2022/10/09 06:39:41;;;;;;;6.87;4.42;;;;;;;10.47;100.00;99988.21;1761818;79;21065;-49
2022/10/09 06:42:08;;;;;;;8.05;4.12;;;;;;;10.60;100.00;99985.40;1763376;79;21105;-46
2022/10/09 06:44:42;;;;;;;6.25;4.05;;;;;;;10.73;100.00;99985.70;1758854;79;21585;-45
2022/10/09 06:47:08;;;;;;;5.03;3.17;;;;;;;10.85;100.00;99988.73;1761784;79;21915;-46
2022/10/09 06:49:34;;;;;;;4.47;2.58;;;;;;;10.98;100.00;99987.68;1763658;79;20997;-45
2022/10/09 06:52:01;;;;;;;5.72;2.70;;;;;;;11.11;100.00;99991.58;1750393;80;21087;-45
2022/10/09 06:54:27;;;;;;;4.17;2.22;;;;;;;11.23;100.00;99992.80;1750629;79;21594;-48
2022/10/09 06:56:54;;;;;;;5.37;2.98;;;;;;;11.34;100.00;99991.36;1778183;78;21068;-45
2022/10/09 06:59:21;;;;;;;4.95;2.95;;;;;;;11.49;100.00;99987.05;1753164;79;21857;-45
2022/10/09 07:01:47;;;;;;;5.08;3.00;;;;;;;11.66;100.00;99986.22;1754264;79;21586;-46
2022/10/09 07:04:14;;;;;;;5.70;3.90;;;;;;;11.80;100.00;99984.25;1754571;79;21219;-47
2022/10/09 07:06:43;;;;;;;5.47;3.67;;;;;;;11.93;100.00;99987.59;1755303;79;21062;-47
2022/10/09 07:09:11;;;;;;;3.40;3.10;;;;;;;12.06;100.00;99986.52;1751007;79;21087;-50
2022/10/09 07:11:42;;;;;;;8.78;3.15;;;;;;;12.18;100.00;99983.18;1755202;79;21054;-50
2022/10/09 07:14:09;;;;;;;4.50;2.70;;;;;;;12.30;100.00;99976.29;1747472;79;21045;-48
2022/10/09 07:16:41;;;;;;;6.35;2.65;;;;;;;12.42;100.00;99981.03;1742972;80;21087;-50
2022/10/09 07:19:10;;;;;;;4.87;2.47;;;;;;;12.54;100.00;99979.05;1741179;80;21072;-49
2022/10/09 07:21:41;;;;;;;6.08;2.67;;;;;;;12.67;100.00;99974.77;1742338;80;21589;-47
2022/10/09 07:24:07;;;;;;;7.33;3.10;;;;;;;12.79;100.00;99980.84;1744301;80;21843;-49
2022/10/09 07:26:37;;;;;;;6.75;2.77;;;;;;;12.91;100.00;99969.00;1716233;81;21056;-48
2022/10/09 07:29:05;;;;;;;4.72;2.67;;;;;;;13.12;100.00;99967.80;1740684;80;21313;-50
2022/10/09 07:31:31;;;;;;;4.87;2.60;;;;;;;13.21;100.00;99964.63;1742270;80;21645;-51
2022/10/09 07:33:59;;;;;;;7.20;3.00;;;;;;;13.21;100.00;99964.63;1743781;80;21577;-49
2022/10/09 07:36:26;;;;;;;8.00;2.77;;;;;;;13.43;100.00;99965.19;1745996;80;21928;-49
2022/10/09 07:38:55;;;;;;;5.53;2.50;;;;;;;13.43;100.00;99965.19;1744573;80;21113;-49
2022/10/09 07:41:24;;;;;;;10.38;2.72;;;;;;;13.52;100.00;99963.80;1718047;81;21857;-47
2022/10/09 07:43:50;;;;;;;13.00;2.37;;;;;;;13.62;100.00;99964.52;1715840;81;21045;-47
2022/10/09 07:46:19;;;;;;;3.42;2.42;;;;;;;13.72;100.00;99959.93;1718220;81;21045;-48
2022/10/09 07:48:45;;;;;;;7.45;2.60;;;;;;;13.81;100.00;99960.27;1718782;81;21822;-47
2022/10/09 07:51:16;;;;;;;7.30;2.60;;;;;;;13.90;100.00;99952.09;1708478;82;21064;-48
2022/10/09 07:53:42;;;;;;;6.65;2.12;;;;;;;13.99;100.00;99956.97;1726136;80;21537;-49
2022/10/09 07:56:15;;;;;;;6.62;2.20;;;;;;;14.07;100.00;99958.75;1725412;81;21695;-47
2022/10/09 07:58:42;;;;;;;4.58;2.83;;;;;;;14.14;100.00;99956.53;1726211;80;20993;-48
2022/10/09 08:01:08;;;;;;;4.58;2.52;;;;;;;14.18;100.00;99956.28;1728727;81;21904;-50
2022/10/09 08:03:35;;;;;;;4.28;2.10;;;;;;;14.20;100.00;99961.13;1731519;81;21040;-49
2022/10/09 08:06:02;;;;;;;6.03;2.50;;;;;;;14.23;100.00;99954.64;1731733;81;20993;-49
2022/10/09 08:08:29;;;;;;;4.85;1.87;;;;;;;14.24;100.00;99950.48;1724386;81;22085;-48
2022/10/09 08:10:56;;;;;;;4.78;1.67;;;;;;;14.30;100.00;99957.36;1731204;80;22032;-50
2022/10/09 08:13:24;;;;;;;5.42;2.22;;;;;;;14.35;100.00;99960.68;1732690;80;21721;-49
2022/10/09 08:15:52;;;;;;;8.55;2.00;;;;;;;14.38;100.00;99963.19;1733805;80;20981;-48
2022/10/09 08:18:18;;;;;;;5.20;1.98;;;;;;;14.40;100.00;99958.59;1729205;81;21053;-48
2022/10/09 08:20:44;;;;;;;6.58;1.95;;;;;;;14.43;100.00;99953.00;1729599;81;21036;-48
2022/10/09 08:23:11;;;;;;;8.48;2.35;;;;;;;14.47;100.00;99952.30;1713217;80;21621;-47
2022/10/09 08:25:37;;;;;;;9.43;2.65;;;;;;;14.54;100.00;99952.35;1723470;81;21783;-47
2022/10/09 08:28:03;;;;;;;3.45;1.57;;;;;;;14.60;100.00;99956.91;1748643;80;20966;-50
2022/10/09 08:30:30;;;;;;;3.20;1.22;;;;;;;14.67;100.00;99958.27;1734068;80;21029;-49
2022/10/09 08:32:56;;;;;;;4.40;1.05;;;;;;;14.76;100.00;99959.05;1734967;81;21097;-47
2022/10/09 08:35:22;;;;;;;4.45;1.20;;;;;;;14.83;100.00;99951.40;1745498;80;21520;-49
2022/10/09 08:37:49;;;;;;;5.47;1.10;;;;;;;14.91;100.00;99949.08;1740733;80;21792;-48
2022/10/09 08:40:26;;;;;;;3.98;1.27;;;;;;;15.02;100.00;99945.70;1741189;80;21227;-48
2022/10/09 08:43:01;;;;;;;2.15;0.90;;;;;;;15.17;100.00;99944.72;1749184;80;21124;-49
2022/10/09 08:45:28;;;;;;;5.12;0.90;;;;;;;15.29;100.00;99934.45;1738026;80;21058;-50
2022/10/09 08:47:58;;;;;;;8.38;1.30;;;;;;;15.42;100.00;99934.03;1717630;81;21400;-50
2022/10/09 08:50:28;;;;;;;5.78;0.90;;;;;;;15.55;100.00;99926.00;1723294;81;21777;-50
2022/10/09 08:53:15;;;;;;;6.85;0.90;;;;;;;15.67;100.00;99919.75;1723457;81;21064;-50
2022/10/09 08:55:47;;;;;;;9.83;0.90;;;;;;;15.80;100.00;99903.05;1716108;81;21654;-49
2022/10/09 08:58:18;;;;;;;2.65;0.60;;;;;;;15.95;100.00;99897.55;1723911;81;21583;-49
2022/10/09 09:00:53;;;;;;;1.65;0.60;;;;;;;16.07;100.00;99902.16;1722344;81;21060;-49
2022/10/09 09:03:52;;;;;;;0.80;0.50;;;;;;;16.14;100.00;99912.48;1727748;81;21776;-49
2022/10/09 09:06:27;;;;;;;2.10;1.00;;;;;;;16.21;100.00;99925.15;1724260;81;21107;-49
2022/10/09 09:09:20;;;;;;;3.95;0.80;;;;;;;16.25;100.00;99924.81;1724644;81;21550;-49
2022/10/09 09:12:05;;;;;;;1.93;0.70;;;;;;;16.29;100.00;99928.20;1742027;80;21097;-49
2022/10/09 09:14:53;;;;;;;4.17;0.80;;;;;;;16.36;100.00;99936.31;1743829;80;21102;-50
2022/10/09 09:17:32;;;;;;;1.20;0.70;;;;;;;16.40;100.00;99926.11;1721267;81;21968;-52
2022/10/09 09:20:16;;;;;;;2.83;0.85;;;;;;;16.44;100.00;99925.78;1721076;81;21567;-50
2022/10/09 09:22:46;;;;;;;1.40;0.75;;;;;;;16.48;100.00;99925.97;1730913;80;21660;-50
2022/10/09 09:25:25;;;;;;;2.60;0.80;;;;;;;16.54;100.00;99927.38;1720186;81;21072;-50
2022/10/09 09:27:52;;;;;;;5.15;1.10;;;;;;;16.60;100.00;99923.73;1721631;81;21464;-49
2022/10/09 09:30:34;;;;;;;3.98;0.80;;;;;;;16.68;100.00;99923.22;1741426;80;23146;-49
2022/10/09 09:33:34;;;;;;;3.60;0.75;;;;;;;16.73;100.00;99913.40;1740077;80;21057;-49
2022/10/09 09:36:36;;;;;;;0.90;0.70;;;;;;;16.78;100.00;99918.88;1740365;80;21116;-49
2022/10/09 09:39:03;;;;;;;4.47;0.93;;;;;;;16.87;100.00;99918.71;1742045;81;21394;-50
2022/10/09 09:41:29;;;;;;;7.55;0.70;;;;;;;16.91;100.00;99912.96;1742175;80;21538;-49
2022/10/09 09:43:56;;;;;;;5.03;0.70;;;;;;;16.96;100.00;99909.89;1740865;80;21954;-49
2022/10/09 09:46:25;;;;;;;1.00;0.80;;;;;;;17.02;100.00;99911.67;1722638;81;21255;-49
2022/10/09 09:48:52;;;;;;;2.20;0.85;;;;;;;17.09;100.00;99917.56;1741735;80;21027;-49
2022/10/09 09:51:24;;;;;;;1.27;0.70;;;;;;;17.17;100.00;99907.48;1727644;80;21092;-49
2022/10/09 09:54:06;;;;;;;2.05;0.80;;;;;;;17.23;100.00;99913.34;1728961;80;21044;-50
2022/10/09 09:56:39;;;;;;;1.45;0.70;;;;;;;17.32;100.00;99910.44;1720712;80;21801;-49
2022/10/09 09:59:06;;;;;;;1.82;0.60;;;;;;;17.39;100.00;99914.44;1723129;80;21012;-49
2022/10/09 10:01:33;;;;;;;1.98;0.60;;;;;;;17.40;100.00;99914.33;1724763;80;21625;-49
2022/10/09 10:04:02;;;;;;;1.50;0.65;;;;;;;17.41;100.00;99919.29;1729443;81;21098;-50
2022/10/09 10:06:35;;;;;;;1.50;0.60;;;;;;;17.39;100.00;99916.67;1724918;81;21045;-50
2022/10/09 10:09:15;;;;;;;3.15;0.70;;;;;;;17.38;100.00;99912.70;1727622;80;21809;-49
2022/10/09 10:11:56;;;;;;;1.00;0.70;;;;;;;17.42;100.00;99913.36;1724083;80;21084;-50
2022/10/09 10:14:23;;;;;;;1.90;0.60;;;;;;;17.46;100.00;99914.84;1727100;80;21067;-49
2022/10/09 10:16:51;;;;;;;1.40;0.75;;;;;;;17.49;100.00;99907.34;1761906;79;21461;-49
2022/10/09 10:19:25;;;;;;;2.45;0.80;;;;;;;17.55;100.00;99910.09;1745775;80;21054;-50
2022/10/09 10:21:58;;;;;;;2.83;0.70;;;;;;;17.59;100.00;99905.68;1739020;80;22525;-50
2022/10/09 10:24:40;;;;;;;1.35;1.10;;;;;;;17.61;100.00;99903.69;1750114;79;21366;-50
2022/10/09 10:30:08;;;;;;;2.65;0.80;;;;;;;17.59;100.00;99894.80;1780039;78;28461;-50
2022/10/09 10:32:55;;;;;;;3.47;0.68;;;;;;;17.55;100.00;99905.52;1741376;80;21041;-50
2022/10/09 10:35:31;;;;;;;3.25;0.70;;;;;;;17.54;100.00;99904.27;1704817;81;21762;-49
2022/10/09 10:38:20;;;;;;;1.02;0.70;;;;;;;17.50;100.00;99909.58;1713684;81;21545;-50
2022/10/09 10:41:16;;;;;;;1.05;0.50;;;;;;;17.43;100.00;99896.92;1708867;81;21064;-50
2022/10/09 10:43:46;;;;;;;0.80;0.60;;;;;;;17.35;100.00;99898.82;1705688;81;21100;-50
2022/10/09 10:46:39;;;;;;;2.75;0.78;;;;;;;17.26;100.00;99898.17;1709210;81;21024;-49
2022/10/09 10:49:06;;;;;;;0.90;0.70;;;;;;;17.19;100.00;99890.05;1717023;81;21644;-50
2022/10/09 10:51:44;;;;;;;5.05;0.80;;;;;;;17.14;100.00;99881.86;1652154;83;21062;-49
2022/10/09 10:54:31;;;;;;;1.60;0.62;;;;;;;17.10;100.00;99883.92;1696134;83;21065;-50
2022/10/09 10:57:17;;;;;;;1.62;0.70;;;;;;;17.07;100.00;99888.73;1684670;83;21102;-50
2022/10/09 10:59:59;;;;;;;2.45;0.95;;;;;;;17.05;100.00;99886.61;1673387;83;21048;-50
2022/10/09 11:03:09;;;;;;;4.62;0.90;;;;;;;17.04;100.00;99889.81;1689129;82;21662;-50
2022/10/09 11:06:11;;;;;;;2.22;0.70;;;;;;;17.05;100.00;99887.48;1687674;82;21614;-50
2022/10/09 11:08:55;;;;;;;1.40;0.72;;;;;;;17.09;100.00;99886.29;1690956;82;21068;-50
2022/10/09 11:11:41;;;;;;;1.35;0.80;;;;;;;17.13;100.00;99882.34;1689852;82;21155;-50
2022/10/09 11:14:33;;;;;;;4.55;0.70;;;;;;;17.17;100.00;99881.16;1691447;82;27062;-49
2022/10/09 11:17:42;;;;;;;2.15;0.80;;;;;;;17.21;100.00;99883.14;1686655;82;21057;-50
2022/10/09 11:20:34;;;;;;;1.30;0.70;;;;;;;17.23;100.00;99885.27;1691426;82;21042;-49
2022/10/09 11:23:37;;;;;;;4.00;0.82;;;;;;;17.24;100.00;99880.21;1692097;82;21009;-49
2022/10/09 11:26:25;;;;;;;3.12;0.85;;;;;;;17.26;100.00;99881.84;1642500;85;20998;-50
2022/10/09 11:29:01;;;;;;;4.28;0.90;;;;;;;17.29;100.00;99882.95;1633772;85;21097;-49
2022/10/09 11:31:39;;;;;;;4.00;0.90;;;;;;;17.31;100.00;99881.48;1700620;81;21617;-50
2022/10/09 11:34:22;;;;;;;2.15;0.80;;;;;;;17.30;100.00;99872.95;1723079;80;20970;-49
2022/10/09 11:36:48;;;;;;;1.72;0.90;;;;;;;17.31;100.00;99874.69;1702642;80;20975;-49
2022/10/09 11:39:22;;;;;;;2.50;0.70;;;;;;;17.32;100.00;99878.66;1721872;80;21583;-50
2022/10/09 11:41:51;;;;;;;3.83;0.80;;;;;;;17.34;100.00;99875.34;1722499;80;21062;-50
2022/10/09 11:44:41;;;;;;;4.05;0.90;;;;;;;17.35;100.00;99874.33;1720147;80;21711;-50
2022/10/09 11:47:38;;;;;;;2.05;1.20;;;;;;;17.34;100.00;99871.27;1717268;80;21082;-50
2022/10/09 11:50:34;;;;;;;8.58;3.10;;;;;;;17.29;100.00;99877.52;1719280;80;21043;-50